createdAt,value
2023-03-29T00:02:14.530Z,3.30
2023-03-29T00:04:44.131Z,3.80
2023-03-29T00:07:16.181Z,4.65
2023-03-29T00:09:43.194Z,4.38
2023-03-29T00:12:11.669Z,4.18
2023-03-29T00:14:38.617Z,4.47
2023-03-29T00:17:06.477Z,4.45
2023-03-29T00:19:35.865Z,4.10
2023-03-29T00:22:05.996Z,4.93
2023-03-29T00:24:33.135Z,4.85
2023-03-29T00:26:59.994Z,4.50
2023-03-29T00:29:27.044Z,4.28
2023-03-29T00:31:56.068Z,4.00
2023-03-29T00:34:24.401Z,3.65
2023-03-29T00:36:53.109Z,3.88
2023-03-29T00:39:21.211Z,3.60
2023-03-29T00:41:49.926Z,3.55
2023-03-29T00:44:54.094Z,3.53
2023-03-29T00:47:31.401Z,3.58
2023-03-29T00:50:09.876Z,3.17
2023-03-29T00:52:38.921Z,3.65
2023-03-29T00:55:11.354Z,3.28
2023-03-29T00:57:40.718Z,3.72
2023-03-29T01:00:10.247Z,4.00
2023-03-29T01:02:40.047Z,3.38
2023-03-29T01:05:18.564Z,4.03
2023-03-29T01:07:58.254Z,3.50
2023-03-29T01:10:42.860Z,3.72
2023-03-29T01:13:22.464Z,3.88
2023-03-29T01:15:53.474Z,3.30
2023-03-29T01:18:23.252Z,4.20
2023-03-29T01:20:55.635Z,3.95
2023-03-29T01:23:46.018Z,3.60
2023-03-29T01:26:54.941Z,3.55
2023-03-29T01:29:36.452Z,3.63
2023-03-29T01:32:14.632Z,3.35
2023-03-29T01:35:02.730Z,3.75
2023-03-29T01:37:39.438Z,3.10
2023-03-29T01:40:07.068Z,3.88
2023-03-29T01:42:42.678Z,3.70
2023-03-29T01:45:39.178Z,3.67
2023-03-29T01:48:29.918Z,3.63
2023-03-29T01:51:28.917Z,3.50
2023-03-29T01:54:01.159Z,3.50
2023-03-29T01:56:31.047Z,3.80
2023-03-29T01:59:04.115Z,3.40
2023-03-29T02:01:38.586Z,3.67
2023-03-29T02:04:11.209Z,3.80
2023-03-29T02:06:39.816Z,3.47
2023-03-29T02:09:09.166Z,3.95
2023-03-29T02:11:46.232Z,3.97
2023-03-29T02:14:14.013Z,3.30
2023-03-29T02:16:50.432Z,4.10
2023-03-29T02:19:18.939Z,3.92
2023-03-29T02:22:11.055Z,3.78
2023-03-29T02:24:45.069Z,4.10
2023-03-29T02:27:15.708Z,3.80
2023-03-29T02:29:42.733Z,3.85
2023-03-29T02:32:19.751Z,3.67
2023-03-29T02:34:58.848Z,4.03
2023-03-29T02:37:30.382Z,4.07
2023-03-29T02:39:59.135Z,4.53
2023-03-29T02:42:26.730Z,3.80
2023-03-29T02:44:59.021Z,3.78
2023-03-29T02:47:33.891Z,3.85
2023-03-29T02:50:03.334Z,4.00
2023-03-29T02:52:39.377Z,4.45
2023-03-29T02:55:11.508Z,4.72
2023-03-29T02:57:39.698Z,4.28
2023-03-29T03:00:10.217Z,4.43
2023-03-29T03:02:38.125Z,4.20
2023-03-29T03:05:06.534Z,4.43
2023-03-29T03:07:33.835Z,3.97
2023-03-29T03:10:01.037Z,4.55
2023-03-29T03:12:27.866Z,4.47
2023-03-29T03:14:54.715Z,4.78
2023-03-29T03:17:23.201Z,5.13
2023-03-29T03:19:50.978Z,4.60
2023-03-29T03:22:18.463Z,4.72
2023-03-29T03:24:46.184Z,4.65
2023-03-29T03:27:13.641Z,4.47
2023-03-29T03:29:41.643Z,4.78
2023-03-29T03:32:08.791Z,4.38
2023-03-29T03:34:36.028Z,4.60
2023-03-29T03:37:02.977Z,4.65
2023-03-29T03:39:30.069Z,5.07
2023-03-29T03:41:57.301Z,5.32
2023-03-29T03:44:24.413Z,8.38
2023-03-29T03:46:51.492Z,13.50
2023-03-29T03:49:19.334Z,19.45
2023-03-29T03:51:46.373Z,11.02
2023-03-29T03:54:13.333Z,9.73
2023-03-29T03:56:40.252Z,6.25
2023-03-29T03:59:07.344Z,5.63
2023-03-29T04:01:35.464Z,6.07
2023-03-29T04:04:03.227Z,5.25
2023-03-29T04:06:30.748Z,5.45
2023-03-29T04:08:58.049Z,4.65
2023-03-29T04:11:25.783Z,4.90
2023-03-29T04:13:52.736Z,4.78
2023-03-29T04:16:19.650Z,4.60
2023-03-29T04:18:47.001Z,4.28
2023-03-29T04:21:14.014Z,4.55
2023-03-29T04:23:43.135Z,4.43
2023-03-29T04:26:10.134Z,4.68
2023-03-29T04:28:37.113Z,4.57
2023-03-29T04:31:04.386Z,4.57
2023-03-29T04:33:31.718Z,5.18
2023-03-29T04:35:59.243Z,5.07
2023-03-29T04:38:26.896Z,5.22
2023-03-29T04:40:55.800Z,5.55
2023-03-29T04:43:23.718Z,5.65
2023-03-29T04:45:51.052Z,5.93
2023-03-29T04:48:17.907Z,5.00
2023-03-29T04:50:47.637Z,4.60
2023-03-29T04:53:14.914Z,4.45
2023-03-29T04:55:41.981Z,4.70
2023-03-29T04:58:08.948Z,4.40
2023-03-29T05:00:35.870Z,4.63
2023-03-29T05:03:04.460Z,5.20
2023-03-29T05:05:31.623Z,5.57
2023-03-29T05:07:58.715Z,5.40
2023-03-29T05:10:25.923Z,4.78
2023-03-29T05:12:54.384Z,4.82
2023-03-29T05:15:22.139Z,5.80
2023-03-29T05:17:49.778Z,5.00
2023-03-29T05:20:17.619Z,5.45
2023-03-29T05:22:44.527Z,5.05
2023-03-29T05:25:11.892Z,5.43
2023-03-29T05:27:38.753Z,5.53
2023-03-29T05:30:06.356Z,5.15
2023-03-29T05:32:35.016Z,5.30
2023-03-29T05:35:01.994Z,5.30
2023-03-29T05:37:28.812Z,5.47
2023-03-29T05:40:05.965Z,5.07
2023-03-29T05:42:33.552Z,4.90
2023-03-29T05:45:00.852Z,4.70
2023-03-29T05:47:29.268Z,4.50
2023-03-29T05:49:57.316Z,4.90
2023-03-29T05:52:24.879Z,5.20
2023-03-29T05:54:51.855Z,5.18
2023-03-29T05:57:19.128Z,5.22
2023-03-29T05:59:46.993Z,5.80
2023-03-29T06:02:16.093Z,6.10
2023-03-29T06:04:43.297Z,6.80
2023-03-29T06:07:12.348Z,7.30
2023-03-29T06:09:39.890Z,6.00
2023-03-29T06:12:08.391Z,6.50
2023-03-29T06:14:36.477Z,5.82
2023-03-29T06:17:03.856Z,5.75
2023-03-29T06:19:30.994Z,5.75
2023-03-29T06:21:57.914Z,5.88
2023-03-29T06:24:25.234Z,5.28
2023-03-29T06:26:52.559Z,5.78
2023-03-29T06:29:19.730Z,5.00
2023-03-29T06:31:47.084Z,5.82
2023-03-29T06:34:13.968Z,5.35
2023-03-29T06:36:40.832Z,5.22
2023-03-29T06:39:08.094Z,5.38
2023-03-29T06:41:35.072Z,4.75
2023-03-29T06:44:02.269Z,5.43
2023-03-29T06:46:29.552Z,5.03
2023-03-29T06:48:56.972Z,5.20
2023-03-29T06:51:23.948Z,5.32
2023-03-29T06:53:50.927Z,5.65
2023-03-29T06:56:18.185Z,5.03
2023-03-29T06:58:45.095Z,5.43
2023-03-29T07:01:12.707Z,5.45
2023-03-29T07:03:40.178Z,5.57
2023-03-29T07:06:10.176Z,5.25
2023-03-29T07:08:43.523Z,5.22
2023-03-29T07:11:12.650Z,5.00
2023-03-29T07:13:42.598Z,5.15
2023-03-29T07:16:14.470Z,5.95
2023-03-29T07:18:45.146Z,5.53
2023-03-29T07:21:13.416Z,5.55
2023-03-29T07:23:40.851Z,7.10
2023-03-29T07:26:08.169Z,7.55
2023-03-29T07:28:37.577Z,6.80
2023-03-29T07:31:11.128Z,6.05
2023-03-29T07:33:39.359Z,5.80
2023-03-29T07:36:06.968Z,5.43
2023-03-29T07:38:34.239Z,6.13
2023-03-29T07:41:07.062Z,6.32
2023-03-29T07:43:34.501Z,6.25
2023-03-29T07:46:03.988Z,6.25
2023-03-29T07:48:32.468Z,6.10
2023-03-29T07:50:59.838Z,6.13
2023-03-29T07:53:27.168Z,5.80
2023-03-29T07:55:54.881Z,6.38
2023-03-29T07:58:21.930Z,5.88
2023-03-29T08:00:49.303Z,6.22
2023-03-29T08:03:17.799Z,6.35
2023-03-29T08:05:45.187Z,6.10
2023-03-29T08:08:14.273Z,6.20
2023-03-29T08:11:26.448Z,6.28
2023-03-29T08:13:53.646Z,7.00
2023-03-29T08:16:20.729Z,6.78
2023-03-29T08:18:47.629Z,6.25
2023-03-29T08:21:14.942Z,6.25
2023-03-29T08:23:42.232Z,6.07
2023-03-29T08:26:09.662Z,7.13
2023-03-29T08:28:36.573Z,6.88
2023-03-29T08:31:03.870Z,6.78
2023-03-29T08:33:31.219Z,6.95
2023-03-29T08:35:58.115Z,6.90
2023-03-29T08:38:25.012Z,6.93
2023-03-29T08:40:52.288Z,6.55
2023-03-29T08:43:27.202Z,6.60
2023-03-29T08:46:15.957Z,6.88
2023-03-29T08:48:50.395Z,6.93
2023-03-29T08:51:41.103Z,6.93
2023-03-29T08:54:21.877Z,6.65
2023-03-29T08:56:50.645Z,7.20
2023-03-29T08:59:24.952Z,6.63
2023-03-29T09:01:55.885Z,6.57
2023-03-29T09:04:27.783Z,6.85
2023-03-29T09:06:55.210Z,6.55
2023-03-29T09:09:24.353Z,6.97
2023-03-29T09:12:08.741Z,6.97
2023-03-29T09:14:57.200Z,7.20
2023-03-29T09:17:53.669Z,6.50
2023-03-29T09:20:42.258Z,6.78
2023-03-29T09:23:41.612Z,6.75
2023-03-29T09:26:23.768Z,6.32
2023-03-29T09:28:53.730Z,6.68
2023-03-29T09:31:37.425Z,6.63
2023-03-29T09:34:10.527Z,6.35
2023-03-29T09:36:57.244Z,7.43
2023-03-29T09:39:27.540Z,7.30
2023-03-29T09:42:04.263Z,7.00
2023-03-29T09:44:44.066Z,6.88
2023-03-29T09:47:33.004Z,7.00
2023-03-29T09:50:05.137Z,6.80
2023-03-29T09:52:32.645Z,7.68
2023-03-29T09:55:03.817Z,6.65
2023-03-29T09:57:31.420Z,6.13
2023-03-29T10:00:01.965Z,6.53
2023-03-29T10:02:31.750Z,6.40
2023-03-29T10:05:01.034Z,6.15
2023-03-29T10:07:40.410Z,6.05
2023-03-29T10:10:10.580Z,6.20
2023-03-29T10:12:37.628Z,5.90
2023-03-29T10:15:06.213Z,6.07
2023-03-29T10:17:40.898Z,5.85
2023-03-29T10:20:11.808Z,6.10
2023-03-29T10:22:41.040Z,5.53
2023-03-29T10:25:17.227Z,5.60
2023-03-29T10:27:46.681Z,5.13
2023-03-29T10:30:22.779Z,5.00
2023-03-29T10:32:58.045Z,5.68
2023-03-29T10:35:40.524Z,5.38
2023-03-29T10:38:13.467Z,5.50
2023-03-29T10:40:50.731Z,5.07
2023-03-29T10:43:17.611Z,5.82
2023-03-29T10:45:47.951Z,4.93
2023-03-29T10:48:16.623Z,4.97
2023-03-29T10:50:49.990Z,4.75
2023-03-29T10:53:32.758Z,4.78
2023-03-29T10:56:13.292Z,3.40
2023-03-29T10:59:16.281Z,3.42
2023-03-29T11:02:13.386Z,2.63
2023-03-29T11:04:56.737Z,2.80
2023-03-29T11:07:38.867Z,2.47
2023-03-29T11:10:44.912Z,2.63
2023-03-29T11:13:26.091Z,2.40
2023-03-29T11:16:17.970Z,2.40
2023-03-29T11:19:11.233Z,2.47
2023-03-29T11:21:59.576Z,2.47
2023-03-29T11:24:33.835Z,2.45
2023-03-29T11:27:31.298Z,3.65
2023-03-29T11:30:08.874Z,3.03
2023-03-29T11:32:47.668Z,3.10
2023-03-29T11:35:50.754Z,3.13
2023-03-29T11:38:28.133Z,3.15
2023-03-29T11:41:17.727Z,3.80
2023-03-29T11:43:49.864Z,3.40
2023-03-29T11:46:29.615Z,3.60
2023-03-29T11:49:14.067Z,3.25
2023-03-29T11:51:50.954Z,3.42
2023-03-29T11:54:46.283Z,3.13
2023-03-29T11:57:20.025Z,3.40
2023-03-29T12:00:08.761Z,3.30
2023-03-29T12:02:56.000Z,2.88
2023-03-29T12:05:34.043Z,2.90
2023-03-29T12:08:09.338Z,3.10
2023-03-29T12:10:43.808Z,2.80
2023-03-29T12:13:33.613Z,2.88
2023-03-29T12:16:22.016Z,2.92
2023-03-29T12:18:53.938Z,3.15
2023-03-29T12:21:23.563Z,3.72
2023-03-29T12:23:51.976Z,3.80
2023-03-29T12:26:40.614Z,6.18
2023-03-29T12:29:22.643Z,3.95
2023-03-29T12:31:55.184Z,5.00
2023-03-29T12:34:48.121Z,5.00
2023-03-29T12:37:25.113Z,4.35
2023-03-29T12:39:53.175Z,5.40
2023-03-29T12:42:23.176Z,5.97
2023-03-29T12:45:00.792Z,4.90
2023-03-29T12:47:33.959Z,5.60
2023-03-29T12:50:03.972Z,5.70
2023-03-29T12:52:34.749Z,5.70
2023-03-29T12:55:17.020Z,5.35
2023-03-29T12:58:02.207Z,4.97
2023-03-29T13:00:32.749Z,4.95
2023-03-29T13:03:27.688Z,4.80
2023-03-29T13:06:05.209Z,6.13
2023-03-29T13:08:42.340Z,5.20
2023-03-29T13:11:25.461Z,5.38
2023-03-29T13:13:52.488Z,6.00
2023-03-29T13:16:31.357Z,6.00
2023-03-29T13:19:30.067Z,6.13
2023-03-29T13:22:02.994Z,6.30
2023-03-29T13:25:06.066Z,6.20
2023-03-29T13:28:01.349Z,6.68
2023-03-29T13:30:57.458Z,6.03
2023-03-29T13:33:43.585Z,7.13
2023-03-29T13:36:42.472Z,7.50
2023-03-29T13:39:18.557Z,7.00
2023-03-29T13:41:53.168Z,8.57
2023-03-29T13:44:22.981Z,7.00
2023-03-29T13:47:01.640Z,7.63
2023-03-29T13:49:31.807Z,7.38
2023-03-29T13:52:33.433Z,7.70
2023-03-29T13:55:27.036Z,7.88
2023-03-29T13:58:07.404Z,7.20
2023-03-29T14:00:40.112Z,8.15
2023-03-29T14:03:14.486Z,8.90
2023-03-29T14:05:57.654Z,8.20
2023-03-29T14:08:30.391Z,7.80
2023-03-29T14:11:02.786Z,8.60
2023-03-29T14:13:33.785Z,7.75
2023-03-29T14:16:11.497Z,8.50
2023-03-29T14:18:41.299Z,8.70
2023-03-29T14:21:11.623Z,8.18
2023-03-29T14:23:45.480Z,8.25
2023-03-29T14:26:21.856Z,8.48
2023-03-29T14:28:54.025Z,8.50
2023-03-29T14:31:23.734Z,8.55
2023-03-29T14:33:57.912Z,8.55
2023-03-29T14:36:26.681Z,7.68
2023-03-29T14:39:32.235Z,8.00
2023-03-29T14:41:59.916Z,8.73
2023-03-29T14:44:33.135Z,8.10
2023-03-29T14:47:01.921Z,8.73
2023-03-29T14:49:29.332Z,8.38
2023-03-29T14:51:57.121Z,8.77
2023-03-29T14:54:32.792Z,8.90
2023-03-29T14:57:03.614Z,8.55
2023-03-29T14:59:37.361Z,9.48
2023-03-29T15:02:22.032Z,9.27
2023-03-29T15:04:56.279Z,9.20
2023-03-29T15:07:25.162Z,9.15
2023-03-29T15:09:53.477Z,9.90
2023-03-29T15:12:20.905Z,9.68
2023-03-29T15:14:51.313Z,9.95
2023-03-29T15:17:36.031Z,9.50
2023-03-29T15:20:23.220Z,9.88
2023-03-29T15:22:58.843Z,9.20
2023-03-29T15:25:37.992Z,8.93
2023-03-29T15:28:05.214Z,8.70
2023-03-29T15:30:34.894Z,9.30
2023-03-29T15:33:14.817Z,9.10
2023-03-29T15:35:46.909Z,8.95
2023-03-29T15:38:14.269Z,8.68
2023-03-29T15:40:41.506Z,8.80
2023-03-29T15:43:11.753Z,7.88
2023-03-29T15:45:39.009Z,8.23
2023-03-29T15:48:16.682Z,8.77
2023-03-29T15:50:45.313Z,7.60
2023-03-29T15:53:15.583Z,7.82
2023-03-29T15:55:47.669Z,7.47
2023-03-29T15:58:26.292Z,9.20
2023-03-29T16:01:34.445Z,7.75
2023-03-29T16:04:05.484Z,7.53
2023-03-29T16:06:33.527Z,8.02
2023-03-29T16:09:00.661Z,7.53
2023-03-29T16:11:28.693Z,7.15
2023-03-29T16:13:56.753Z,7.45
2023-03-29T16:16:24.441Z,7.28
2023-03-29T16:18:51.503Z,7.05
2023-03-29T16:21:22.143Z,7.65
2023-03-29T16:23:49.200Z,6.32
2023-03-29T16:26:17.048Z,7.07
2023-03-29T16:28:44.556Z,6.38
2023-03-29T16:31:15.054Z,6.38
2023-03-29T16:33:42.269Z,6.30
2023-03-29T16:36:10.667Z,6.32
2023-03-29T16:38:37.611Z,5.35
2023-03-29T16:41:04.985Z,5.75
2023-03-29T16:43:32.495Z,5.45
2023-03-29T16:45:59.446Z,5.68
2023-03-29T16:48:27.109Z,5.90
2023-03-29T16:50:54.053Z,6.13
2023-03-29T16:53:21.714Z,5.72
2023-03-29T16:55:50.205Z,5.70
2023-03-29T16:58:17.377Z,5.55
2023-03-29T17:00:47.855Z,6.03
2023-03-29T17:03:15.855Z,5.40
2023-03-29T17:05:53.295Z,5.70
2023-03-29T17:08:22.079Z,5.82
2023-03-29T17:10:54.078Z,5.88
2023-03-29T17:13:23.872Z,6.00
2023-03-29T17:15:52.475Z,6.05
2023-03-29T17:18:20.304Z,4.60
2023-03-29T17:20:47.659Z,5.82
2023-03-29T17:23:14.528Z,5.03
2023-03-29T17:25:43.178Z,5.07
2023-03-29T17:28:11.107Z,4.95
2023-03-29T17:30:38.218Z,4.72
2023-03-29T17:33:06.222Z,5.20
2023-03-29T17:35:33.400Z,5.15
2023-03-29T17:38:01.409Z,5.65
2023-03-29T17:40:28.494Z,5.93
2023-03-29T17:42:55.407Z,4.68
2023-03-29T17:45:22.628Z,5.50
2023-03-29T17:47:49.831Z,5.72
2023-03-29T17:50:17.574Z,4.60
2023-03-29T17:52:44.586Z,4.43
2023-03-29T17:55:13.966Z,4.10
2023-03-29T17:57:41.669Z,4.53
2023-03-29T18:00:13.508Z,4.00
2023-03-29T18:02:41.302Z,4.60
2023-03-29T18:05:09.495Z,4.28
2023-03-29T18:07:36.981Z,4.68
2023-03-29T18:10:04.779Z,4.43
2023-03-29T18:12:33.532Z,4.68
2023-03-29T18:15:01.177Z,4.03
2023-03-29T18:17:28.608Z,4.95
2023-03-29T18:19:55.612Z,3.95
2023-03-29T18:22:25.826Z,4.03
2023-03-29T18:24:52.799Z,3.88
2023-03-29T18:27:20.625Z,3.55
2023-03-29T18:29:47.499Z,3.65
2023-03-29T18:32:14.621Z,4.35
2023-03-29T18:34:41.755Z,3.92
2023-03-29T18:37:15.137Z,4.13
2023-03-29T18:39:43.150Z,3.92
2023-03-29T18:42:12.162Z,4.00
2023-03-29T18:44:40.692Z,3.45
2023-03-29T18:47:08.351Z,3.55
2023-03-29T18:49:36.716Z,4.28
2023-03-29T18:52:04.934Z,3.72
2023-03-29T18:54:32.051Z,4.18
2023-03-29T18:57:00.542Z,4.13
2023-03-29T18:59:29.115Z,4.38
2023-03-29T19:01:56.432Z,4.47
2023-03-29T19:04:25.690Z,3.85
2023-03-29T19:06:55.715Z,3.75
2023-03-29T19:09:23.640Z,3.70
2023-03-29T19:11:52.483Z,3.65
2023-03-29T19:14:23.605Z,4.05
2023-03-29T19:16:51.753Z,3.42
2023-03-29T19:19:19.772Z,3.60
2023-03-29T19:21:47.667Z,3.67
2023-03-29T19:24:15.386Z,3.47
2023-03-29T19:26:44.508Z,3.08
2023-03-29T19:29:11.878Z,3.42
2023-03-29T19:31:39.045Z,3.10
2023-03-29T19:34:07.137Z,3.25
2023-03-29T19:36:34.222Z,3.00
2023-03-29T19:39:01.401Z,3.22
2023-03-29T19:41:28.517Z,3.78
2023-03-29T19:43:55.521Z,2.80
2023-03-29T19:46:23.187Z,3.25
2023-03-29T19:48:51.803Z,2.92
2023-03-29T19:51:19.556Z,3.33
2023-03-29T19:53:47.418Z,2.65
2023-03-29T19:56:16.042Z,3.20
2023-03-29T19:58:43.156Z,3.00
2023-03-29T20:01:10.345Z,3.35
2023-03-29T20:03:37.284Z,3.30
2023-03-29T20:06:06.965Z,3.22
2023-03-29T20:08:36.290Z,3.35
2023-03-29T20:11:05.266Z,3.17
2023-03-29T20:13:38.699Z,3.60
2023-03-29T20:16:14.519Z,3.60
2023-03-29T20:18:41.931Z,4.00
2023-03-29T20:21:09.717Z,3.78
2023-03-29T20:23:36.898Z,4.05
2023-03-29T20:26:03.933Z,4.55
2023-03-29T20:28:34.256Z,3.95
2023-03-29T20:31:06.348Z,4.20
2023-03-29T20:33:33.442Z,3.75
2023-03-29T20:36:00.549Z,3.38
2023-03-29T20:38:27.497Z,3.40
2023-03-29T20:40:55.409Z,3.72
2023-03-29T20:43:22.460Z,3.67
2023-03-29T20:45:53.923Z,3.80
2023-03-29T20:48:30.428Z,3.60
2023-03-29T20:50:57.791Z,4.18
2023-03-29T20:53:25.235Z,3.58
2023-03-29T20:55:52.120Z,4.10
2023-03-29T20:58:19.132Z,3.72
2023-03-29T21:00:48.416Z,4.43
2023-03-29T21:03:15.416Z,3.90
2023-03-29T21:05:43.531Z,3.65
2023-03-29T21:08:10.869Z,3.95
2023-03-29T21:10:39.029Z,4.18
2023-03-29T21:13:05.973Z,3.83
2023-03-29T21:15:33.644Z,4.25
2023-03-29T21:18:00.655Z,4.25
2023-03-29T21:20:27.727Z,3.70
2023-03-29T21:22:54.821Z,3.40
2023-03-29T21:25:24.458Z,3.63
2023-03-29T21:27:51.374Z,3.67
2023-03-29T21:30:18.498Z,3.95
2023-03-29T21:32:45.696Z,3.45
2023-03-29T21:35:13.139Z,3.85
2023-03-29T21:37:40.055Z,3.58
2023-03-29T21:40:09.197Z,3.40
2023-03-29T21:42:36.519Z,3.53
2023-03-29T21:45:04.127Z,3.60
2023-03-29T21:47:31.504Z,3.58
2023-03-29T21:49:58.558Z,3.22
2023-03-29T21:52:25.722Z,3.08
2023-03-29T21:54:52.703Z,3.45
2023-03-29T21:57:19.740Z,2.90
2023-03-29T21:59:49.137Z,3.10
2023-03-29T22:02:16.122Z,3.25
2023-03-29T22:04:43.045Z,2.80
2023-03-29T22:07:10.812Z,2.75
2023-03-29T22:09:41.298Z,3.28
2023-03-29T22:12:10.041Z,2.47
2023-03-29T22:14:37.325Z,2.60
2023-03-29T22:17:09.196Z,2.80
2023-03-29T22:19:39.699Z,3.05
2023-03-29T22:22:14.008Z,2.80
2023-03-29T22:24:42.073Z,2.70
2023-03-29T22:27:10.582Z,2.80
2023-03-29T22:29:37.648Z,2.85
2023-03-29T22:32:06.150Z,2.33
2023-03-29T22:34:33.280Z,2.20
2023-03-29T22:37:00.271Z,2.60
2023-03-29T22:39:27.496Z,2.13
2023-03-29T22:41:54.577Z,2.40
2023-03-29T22:44:21.687Z,2.42
2023-03-29T22:46:48.507Z,2.58
2023-03-29T22:49:15.330Z,2.55
2023-03-29T22:51:42.152Z,2.40
2023-03-29T22:54:09.129Z,2.78
2023-03-29T22:56:36.044Z,2.83
2023-03-29T22:59:02.997Z,2.53
2023-03-29T23:01:30.043Z,2.85
2023-03-29T23:03:57.174Z,3.05
2023-03-29T23:06:25.313Z,2.65
2023-03-29T23:08:52.380Z,2.70
2023-03-29T23:11:19.667Z,2.92
2023-03-29T23:13:49.028Z,2.28
2023-03-29T23:16:16.601Z,2.53
2023-03-29T23:18:43.572Z,2.70
2023-03-29T23:21:10.513Z,3.17
2023-03-29T23:23:37.500Z,2.67
2023-03-29T23:26:05.538Z,2.92
2023-03-29T23:28:34.672Z,2.75
2023-03-29T23:31:11.684Z,2.60
2023-03-29T23:33:43.171Z,2.55
2023-03-29T23:36:13.141Z,2.83
2023-03-29T23:38:43.059Z,2.70
2023-03-29T23:41:12.921Z,2.08
2023-03-29T23:43:42.011Z,2.40
2023-03-29T23:46:15.487Z,2.88
2023-03-29T23:48:51.817Z,2.60
2023-03-29T23:51:34.482Z,2.53
2023-03-29T23:54:02.332Z,2.75
2023-03-29T23:56:29.123Z,2.85
2023-03-29T23:58:56.244Z,2.33
